createdAt,value
2023-02-25T00:00:09.931Z,998.58
2023-02-25T00:01:09.921Z,998.61
2023-02-25T00:02:09.955Z,998.66
2023-02-25T00:03:09.912Z,998.67
2023-02-25T00:04:09.893Z,998.73
2023-02-25T00:05:09.876Z,998.74
2023-02-25T00:06:09.870Z,998.75
2023-02-25T00:07:09.858Z,998.79
2023-02-25T00:08:09.846Z,998.79
2023-02-25T00:09:09.841Z,998.72
2023-02-25T00:10:09.830Z,998.72
2023-02-25T00:11:09.822Z,998.75
2023-02-25T00:12:09.815Z,998.78
2023-02-25T00:13:19.134Z,998.77
2023-02-25T00:14:09.801Z,998.72
2023-02-25T00:15:09.781Z,998.71
2023-02-25T00:16:09.775Z,998.70
2023-02-25T00:17:09.854Z,998.73
2023-02-25T00:18:09.754Z,998.75
2023-02-25T00:19:09.729Z,998.77
2023-02-25T00:20:09.732Z,998.72
2023-02-25T00:21:09.762Z,998.69
2023-02-25T00:22:09.710Z,998.73
2023-02-25T00:23:09.698Z,998.78
2023-02-25T00:24:16.407Z,998.76
2023-02-25T00:25:09.683Z,998.74
2023-02-25T00:26:09.670Z,998.77
2023-02-25T00:27:09.655Z,998.76
2023-02-25T00:28:09.648Z,998.83
2023-02-25T00:29:09.639Z,998.85
2023-02-25T00:30:09.629Z,998.81
2023-02-25T00:31:09.725Z,998.86
2023-02-25T00:32:09.870Z,998.88
2023-02-25T00:33:09.606Z,998.89
2023-02-25T00:34:09.595Z,998.88
2023-02-25T00:35:09.581Z,998.92
2023-02-25T00:36:09.568Z,998.95
2023-02-25T00:37:09.703Z,998.93
2023-02-25T00:38:15.842Z,998.90
2023-02-25T00:39:09.632Z,998.92
2023-02-25T00:40:09.532Z,998.81
2023-02-25T00:41:09.526Z,998.89
2023-02-25T00:42:09.520Z,998.84
2023-02-25T00:43:09.497Z,998.91
2023-02-25T00:44:09.494Z,998.83
2023-02-25T00:45:09.493Z,998.91
2023-02-25T00:46:09.541Z,998.82
2023-02-25T00:47:09.464Z,998.81
2023-02-25T00:48:09.469Z,998.80
2023-02-25T00:49:09.447Z,998.79
2023-02-25T00:50:09.444Z,998.81
2023-02-25T00:51:09.450Z,998.79
2023-02-25T00:52:09.416Z,998.79
2023-02-25T00:53:09.400Z,998.78
2023-02-25T00:54:09.392Z,998.75
2023-02-25T00:55:09.383Z,998.78
2023-02-25T00:56:09.371Z,998.81
2023-02-25T00:57:09.363Z,998.81
2023-02-25T00:58:09.354Z,998.80
2023-02-25T00:59:09.346Z,998.81
2023-02-25T01:00:09.359Z,998.82
2023-02-25T01:01:09.368Z,998.82
2023-02-25T01:02:09.319Z,998.80
2023-02-25T01:03:09.385Z,998.80
2023-02-25T01:04:09.294Z,998.84
2023-02-25T01:05:09.284Z,998.82
2023-02-25T01:06:09.287Z,998.87
2023-02-25T01:07:09.266Z,998.86
2023-02-25T01:08:09.253Z,998.82
2023-02-25T01:09:09.243Z,998.80
2023-02-25T01:10:09.229Z,998.86
2023-02-25T01:11:09.217Z,998.76
2023-02-25T01:12:09.216Z,998.78
2023-02-25T01:13:09.205Z,998.75
2023-02-25T01:14:09.294Z,998.74
2023-02-25T01:15:09.180Z,998.79
2023-02-25T01:16:09.178Z,998.83
2023-02-25T01:17:09.156Z,998.78
2023-02-25T01:18:09.155Z,998.81
2023-02-25T01:19:09.150Z,998.81
2023-02-25T01:20:09.124Z,998.79
2023-02-25T01:21:09.115Z,998.80
2023-02-25T01:22:09.107Z,998.80
2023-02-25T01:23:09.114Z,998.75
2023-02-25T01:24:09.098Z,998.77
2023-02-25T01:25:09.077Z,998.75
2023-02-25T01:26:09.063Z,998.76
2023-02-25T01:27:09.055Z,998.72
2023-02-25T01:28:09.055Z,998.74
2023-02-25T01:29:09.046Z,998.70
2023-02-25T01:30:09.027Z,998.77
2023-02-25T01:31:09.101Z,998.75
2023-02-25T01:32:09.181Z,998.76
2023-02-25T01:33:08.997Z,998.77
2023-02-25T01:34:08.998Z,998.76
2023-02-25T01:35:08.976Z,998.79
2023-02-25T01:36:08.976Z,998.79
2023-02-25T01:37:08.957Z,998.80
2023-02-25T01:38:08.966Z,998.81
2023-02-25T01:39:10.010Z,998.81
2023-02-25T01:40:08.942Z,998.78
2023-02-25T01:41:08.924Z,998.81
2023-02-25T01:42:08.910Z,998.82
2023-02-25T01:43:08.903Z,998.77
2023-02-25T01:44:08.907Z,998.78
2023-02-25T01:45:08.874Z,998.81
2023-02-25T01:46:08.958Z,998.83
2023-02-25T01:47:08.864Z,998.85
2023-02-25T01:48:08.845Z,998.79
2023-02-25T01:49:08.845Z,998.84
2023-02-25T01:50:08.834Z,998.87
2023-02-25T01:51:08.809Z,998.87
2023-02-25T01:52:08.833Z,998.88
2023-02-25T01:53:08.804Z,998.84
2023-02-25T01:54:08.797Z,998.89
2023-02-25T01:55:08.776Z,998.88
2023-02-25T01:56:08.772Z,998.89
2023-02-25T01:57:08.819Z,998.91
2023-02-25T01:58:08.752Z,998.89
2023-02-25T01:59:08.733Z,998.89
2023-02-25T02:00:08.730Z,998.85
2023-02-25T02:01:08.780Z,998.84
2023-02-25T02:02:08.754Z,998.81
2023-02-25T02:03:08.704Z,998.85
2023-02-25T02:04:08.689Z,998.83
2023-02-25T02:05:08.671Z,998.81
2023-02-25T02:06:08.665Z,998.78
2023-02-25T02:07:08.657Z,998.82
2023-02-25T02:08:08.660Z,998.85
2023-02-25T02:09:08.632Z,998.87
2023-02-25T02:10:08.625Z,998.86
2023-02-25T02:11:08.608Z,998.89
2023-02-25T02:12:08.611Z,998.84
2023-02-25T02:13:08.598Z,998.89
2023-02-25T02:14:08.628Z,998.85
2023-02-25T02:15:08.573Z,998.85
2023-02-25T02:16:08.590Z,998.82
2023-02-25T02:17:08.551Z,998.85
2023-02-25T02:18:08.552Z,998.88
2023-02-25T02:19:08.534Z,998.88
2023-02-25T02:20:08.531Z,998.84
2023-02-25T02:21:08.512Z,998.84
2023-02-25T02:22:08.497Z,998.84
2023-02-25T02:23:08.493Z,998.91
2023-02-25T02:24:08.483Z,998.84
2023-02-25T02:25:08.478Z,998.82
2023-02-25T02:26:08.464Z,998.84
2023-02-25T02:27:08.454Z,998.81
2023-02-25T02:28:08.451Z,998.88
2023-02-25T02:29:08.434Z,998.86
2023-02-25T02:30:08.415Z,998.85
2023-02-25T02:31:08.508Z,998.85
2023-02-25T02:32:08.524Z,998.83
2023-02-25T02:33:08.389Z,998.84
2023-02-25T02:34:08.388Z,998.84
2023-02-25T02:35:08.374Z,998.88
2023-02-25T02:36:08.371Z,998.88
2023-02-25T02:37:08.346Z,998.85
2023-02-25T02:38:08.340Z,998.89
2023-02-25T02:39:08.328Z,998.89
2023-02-25T02:40:08.319Z,998.90
2023-02-25T02:41:08.315Z,998.89
2023-02-25T02:42:08.302Z,998.89
2023-02-25T02:43:08.289Z,998.88
2023-02-25T02:44:08.280Z,998.91
2023-02-25T02:45:08.265Z,998.89
2023-02-25T02:46:08.384Z,998.88
2023-02-25T02:47:08.246Z,998.89
2023-02-25T02:48:08.240Z,998.90
2023-02-25T02:49:08.239Z,998.95
2023-02-25T02:50:08.227Z,998.92
2023-02-25T02:51:08.208Z,998.96
2023-02-25T02:52:08.190Z,998.96
2023-02-25T02:53:08.182Z,998.95
2023-02-25T02:54:08.172Z,998.95
2023-02-25T02:55:08.164Z,998.93
2023-02-25T02:56:08.151Z,998.98
2023-02-25T02:57:08.141Z,998.96
2023-02-25T02:58:08.146Z,998.96
2023-02-25T02:59:08.176Z,998.94
2023-02-25T03:00:08.112Z,998.89
2023-02-25T03:01:08.156Z,998.91
2023-02-25T03:02:08.097Z,998.90
2023-02-25T03:03:08.080Z,998.91
2023-02-25T03:04:08.110Z,998.88
2023-02-25T03:05:08.064Z,998.92
2023-02-25T03:06:08.049Z,998.88
2023-02-25T03:07:08.037Z,998.88
2023-02-25T03:08:08.035Z,998.92
2023-02-25T03:09:08.014Z,998.86
2023-02-25T03:10:08.002Z,998.95
2023-02-25T03:11:07.994Z,998.94
2023-02-25T03:12:08.002Z,998.94
2023-02-25T03:13:07.981Z,998.95
2023-02-25T03:14:07.964Z,998.94
2023-02-25T03:15:07.958Z,998.97
2023-02-25T03:16:07.943Z,998.94
2023-02-25T03:17:07.929Z,998.97
2023-02-25T03:18:07.927Z,998.99
2023-02-25T03:19:07.930Z,998.97
2023-02-25T03:20:07.922Z,999.00
2023-02-25T03:21:07.891Z,999.00
2023-02-25T03:22:07.895Z,998.97
2023-02-25T03:23:07.876Z,999.03
2023-02-25T03:24:07.867Z,999.04
2023-02-25T03:25:07.852Z,999.03
2023-02-25T03:26:07.848Z,999.08
2023-02-25T03:27:07.842Z,999.04
2023-02-25T03:28:07.824Z,999.00
2023-02-25T03:29:07.821Z,998.97
2023-02-25T03:30:07.810Z,998.98
2023-02-25T03:31:07.834Z,998.96
2023-02-25T03:32:07.942Z,998.96
2023-02-25T03:33:07.774Z,998.95
2023-02-25T03:34:07.764Z,998.96
2023-02-25T03:35:07.762Z,998.98
2023-02-25T03:36:07.740Z,998.92
2023-02-25T03:37:07.738Z,998.99
2023-02-25T03:38:07.728Z,998.96
2023-02-25T03:39:07.723Z,998.97
2023-02-25T03:40:07.720Z,999.01
2023-02-25T03:41:07.694Z,999.04
2023-02-25T03:42:07.692Z,999.04
2023-02-25T03:43:08.486Z,999.08
2023-02-25T03:44:07.660Z,999.00
2023-02-25T03:45:07.656Z,999.03
2023-02-25T03:46:07.678Z,999.01
2023-02-25T03:47:07.679Z,998.99
2023-02-25T03:48:07.626Z,998.96
2023-02-25T03:49:07.632Z,999.03
2023-02-25T03:50:07.600Z,999.01
2023-02-25T03:51:07.597Z,999.03
2023-02-25T03:52:07.582Z,999.04
2023-02-25T03:53:07.576Z,999.08
2023-02-25T03:54:07.562Z,999.04
2023-02-25T03:55:07.551Z,999.09
2023-02-25T03:56:07.540Z,999.10
2023-02-25T03:57:07.520Z,999.10
2023-02-25T03:58:07.522Z,999.10
2023-02-25T03:59:07.510Z,999.15
2023-02-25T04:00:07.492Z,999.10
2023-02-25T04:01:07.490Z,999.09
2023-02-25T04:02:07.504Z,999.09
2023-02-25T04:03:07.466Z,999.14
2023-02-25T04:04:07.453Z,999.07
2023-02-25T04:05:07.442Z,999.08
2023-02-25T04:06:07.433Z,999.10
2023-02-25T04:07:07.420Z,999.14
2023-02-25T04:08:07.409Z,999.09
2023-02-25T04:09:07.410Z,999.14
2023-02-25T04:10:07.387Z,999.16
2023-02-25T04:11:07.394Z,999.11
2023-02-25T04:12:07.372Z,999.18
2023-02-25T04:13:07.359Z,999.17
2023-02-25T04:14:07.359Z,999.18
2023-02-25T04:15:07.344Z,999.13
2023-02-25T04:16:07.372Z,999.17
2023-02-25T04:17:07.318Z,999.16
2023-02-25T04:18:07.309Z,999.15
2023-02-25T04:19:07.298Z,999.15
2023-02-25T04:20:07.287Z,999.20
2023-02-25T04:21:07.278Z,999.20
2023-02-25T04:22:07.265Z,999.16
2023-02-25T04:23:07.259Z,999.16
2023-02-25T04:24:07.301Z,999.13
2023-02-25T04:25:07.238Z,999.09
2023-02-25T04:26:07.230Z,999.16
2023-02-25T04:27:07.230Z,999.14
2023-02-25T04:28:07.200Z,999.18
2023-02-25T04:29:07.194Z,999.16
2023-02-25T04:30:07.197Z,999.12
2023-02-25T04:31:07.346Z,999.14
2023-02-25T04:32:07.244Z,999.12
2023-02-25T04:33:07.155Z,999.05
2023-02-25T04:34:07.142Z,999.04
2023-02-25T04:35:07.131Z,999.06
2023-02-25T04:36:07.124Z,999.09
2023-02-25T04:37:07.117Z,999.14
2023-02-25T04:38:09.118Z,999.14
2023-02-25T04:39:07.124Z,999.17
2023-02-25T04:40:07.083Z,999.20
2023-02-25T04:41:07.073Z,999.16
2023-02-25T04:42:07.054Z,999.19
2023-02-25T04:43:07.054Z,999.20
2023-02-25T04:44:07.038Z,999.24
2023-02-25T04:45:07.027Z,999.19
2023-02-25T04:46:07.077Z,999.22
2023-02-25T04:47:07.011Z,999.23
2023-02-25T04:48:06.999Z,999.24
2023-02-25T04:49:06.988Z,999.22
2023-02-25T04:50:06.970Z,999.27
2023-02-25T04:51:06.966Z,999.31
2023-02-25T04:52:06.955Z,999.30
2023-02-25T04:53:06.949Z,999.30
2023-02-25T04:54:06.958Z,999.26
2023-02-25T04:55:06.933Z,999.26
2023-02-25T04:56:06.916Z,999.27
2023-02-25T04:57:06.905Z,999.24
2023-02-25T04:58:06.904Z,999.25
2023-02-25T04:59:06.900Z,999.19
2023-02-25T05:00:06.872Z,999.26
2023-02-25T05:01:06.862Z,999.27
2023-02-25T05:02:06.894Z,999.25
2023-02-25T05:03:06.850Z,999.25
2023-02-25T05:04:06.833Z,999.22
2023-02-25T05:05:06.851Z,999.23
2023-02-25T05:06:06.820Z,999.21
2023-02-25T05:07:06.806Z,999.23
2023-02-25T05:08:06.800Z,999.26
2023-02-25T05:09:09.276Z,999.26
2023-02-25T05:10:06.772Z,999.22
2023-02-25T05:11:06.762Z,999.23
2023-02-25T05:12:06.745Z,999.21
2023-02-25T05:13:06.747Z,999.27
2023-02-25T05:14:06.737Z,999.17
2023-02-25T05:15:06.723Z,999.21
2023-02-25T05:16:06.757Z,999.12
2023-02-25T05:17:06.698Z,999.14
2023-02-25T05:18:06.693Z,999.20
2023-02-25T05:19:06.675Z,999.17
2023-02-25T05:20:06.701Z,999.24
2023-02-25T05:21:06.667Z,999.25
2023-02-25T05:22:06.645Z,999.25
2023-02-25T05:23:06.636Z,999.21
2023-02-25T05:24:06.655Z,999.19
2023-02-25T05:25:06.611Z,999.21
2023-02-25T05:26:06.606Z,999.22
2023-02-25T05:27:06.607Z,999.19
2023-02-25T05:28:07.524Z,999.28
2023-02-25T05:29:06.573Z,999.25
2023-02-25T05:30:06.623Z,999.21
2023-02-25T05:31:06.662Z,999.28
2023-02-25T05:32:06.654Z,999.26
2023-02-25T05:33:06.611Z,999.28
2023-02-25T05:34:06.521Z,999.24
2023-02-25T05:35:06.520Z,999.21
2023-02-25T05:36:06.501Z,999.19
2023-02-25T05:37:06.489Z,999.18
2023-02-25T05:38:06.493Z,999.20
2023-02-25T05:39:06.491Z,999.21
2023-02-25T05:40:06.452Z,999.17
2023-02-25T05:41:06.466Z,999.19
2023-02-25T05:42:06.437Z,999.18
2023-02-25T05:43:06.444Z,999.16
2023-02-25T05:44:06.415Z,999.18
2023-02-25T05:45:06.411Z,999.16
2023-02-25T05:46:06.393Z,999.14
2023-02-25T05:47:06.436Z,999.09
2023-02-25T05:48:06.382Z,999.13
2023-02-25T05:49:06.363Z,999.11
2023-02-25T05:50:06.361Z,999.16
2023-02-25T05:51:06.346Z,999.14
2023-02-25T05:52:06.328Z,999.12
2023-02-25T05:53:06.331Z,999.19
2023-02-25T05:54:06.330Z,999.25
2023-02-25T05:55:06.308Z,999.21
2023-02-25T05:56:06.316Z,999.22
2023-02-25T05:57:06.284Z,999.21
2023-02-25T05:58:06.278Z,999.24
2023-02-25T05:59:06.276Z,999.31
2023-02-25T06:00:06.250Z,999.29
2023-02-25T06:01:06.237Z,999.31
2023-02-25T06:02:06.293Z,999.28
2023-02-25T06:03:06.278Z,999.31
2023-02-25T06:04:06.193Z,999.31
2023-02-25T06:05:06.210Z,999.33
2023-02-25T06:06:06.183Z,999.34
2023-02-25T06:07:06.174Z,999.35
2023-02-25T06:08:06.178Z,999.30
2023-02-25T06:09:06.155Z,999.32
2023-02-25T06:10:06.148Z,999.36
2023-02-25T06:11:06.136Z,999.38
2023-02-25T06:12:06.121Z,999.35
2023-02-25T06:13:06.118Z,999.34
2023-02-25T06:14:06.101Z,999.34
2023-02-25T06:15:06.100Z,999.32
2023-02-25T06:16:06.129Z,999.38
2023-02-25T06:17:06.067Z,999.37
2023-02-25T06:18:06.064Z,999.37
2023-02-25T06:19:06.056Z,999.35
2023-02-25T06:20:06.032Z,999.39
2023-02-25T06:21:06.024Z,999.48
2023-02-25T06:22:06.013Z,999.47
2023-02-25T06:23:06.007Z,999.48
2023-02-25T06:24:05.993Z,999.51
2023-02-25T06:25:05.989Z,999.48
2023-02-25T06:26:05.980Z,999.50
2023-02-25T06:27:05.951Z,999.54
2023-02-25T06:28:05.955Z,999.60
2023-02-25T06:29:05.946Z,999.59
2023-02-25T06:30:05.933Z,999.58
2023-02-25T06:31:05.968Z,999.57
2023-02-25T06:32:06.130Z,999.56
2023-02-25T06:33:05.922Z,999.61
2023-02-25T06:34:05.889Z,999.53
2023-02-25T06:35:05.882Z,999.55
2023-02-25T06:36:05.870Z,999.55
2023-02-25T06:37:05.866Z,999.54
2023-02-25T06:38:05.870Z,999.53
2023-02-25T06:39:05.841Z,999.54
2023-02-25T06:40:05.825Z,999.58
2023-02-25T06:41:05.830Z,999.52
2023-02-25T06:42:05.806Z,999.61
2023-02-25T06:43:05.806Z,999.56
2023-02-25T06:44:05.785Z,999.59
2023-02-25T06:45:05.783Z,999.61
2023-02-25T06:46:05.871Z,999.63
2023-02-25T06:47:05.757Z,999.63
2023-02-25T06:48:05.745Z,999.66
2023-02-25T06:49:05.732Z,999.65
2023-02-25T06:50:05.733Z,999.68
2023-02-25T06:51:05.718Z,999.71
2023-02-25T06:52:05.721Z,999.76
2023-02-25T06:53:05.694Z,999.80
2023-02-25T06:54:05.694Z,999.83
2023-02-25T06:55:05.687Z,999.81
2023-02-25T06:56:05.657Z,999.82
2023-02-25T06:57:05.648Z,999.78
2023-02-25T06:58:05.630Z,999.77
2023-02-25T06:59:05.646Z,999.81
2023-02-25T07:00:05.645Z,999.84
2023-02-25T07:01:05.649Z,999.82
2023-02-25T07:02:05.619Z,999.85
2023-02-25T07:03:05.594Z,999.89
2023-02-25T07:04:05.619Z,999.93
2023-02-25T07:05:05.589Z,999.92
2023-02-25T07:06:05.593Z,999.94
2023-02-25T07:07:05.551Z,999.89
2023-02-25T07:08:05.534Z,999.91
2023-02-25T07:09:05.529Z,999.93
2023-02-25T07:10:05.515Z,999.94
2023-02-25T07:11:05.510Z,999.99
2023-02-25T07:12:05.495Z,999.98
2023-02-25T07:13:05.475Z,999.97
2023-02-25T07:14:05.470Z,999.99
2023-02-25T07:15:05.468Z,1000.08
2023-02-25T07:16:05.480Z,1000.03
2023-02-25T07:17:05.451Z,1000.00
2023-02-25T07:18:05.429Z,1000.05
2023-02-25T07:19:05.433Z,1000.02
2023-02-25T07:20:05.406Z,1000.05
2023-02-25T07:21:05.408Z,1000.02
2023-02-25T07:22:05.402Z,1000.01
2023-02-25T07:23:05.386Z,1000.04
2023-02-25T07:24:05.364Z,1000.00
2023-02-25T07:25:05.450Z,1000.03
2023-02-25T07:26:05.360Z,1000.06
2023-02-25T07:27:05.346Z,1000.01
2023-02-25T07:28:05.339Z,1000.08
2023-02-25T07:29:05.316Z,1000.10
2023-02-25T07:30:05.321Z,1000.11
2023-02-25T07:31:05.370Z,1000.12
2023-02-25T07:32:05.441Z,1000.17
2023-02-25T07:33:06.053Z,1000.17
2023-02-25T07:34:05.266Z,1000.15
2023-02-25T07:35:05.265Z,1000.16
2023-02-25T07:36:05.246Z,1000.16
2023-02-25T07:37:05.238Z,1000.15
2023-02-25T07:38:05.215Z,1000.23
2023-02-25T07:39:05.218Z,1000.24
2023-02-25T07:40:05.204Z,1000.23
2023-02-25T07:41:05.203Z,1000.22
2023-02-25T07:42:05.188Z,1000.27
2023-02-25T07:43:05.183Z,1000.17
2023-02-25T07:44:05.175Z,1000.27
2023-02-25T07:45:05.155Z,1000.16
2023-02-25T07:46:05.233Z,1000.18
2023-02-25T07:47:05.135Z,1000.22
2023-02-25T07:48:05.137Z,1000.22
2023-02-25T07:49:05.116Z,1000.22
2023-02-25T07:50:05.109Z,1000.20
2023-02-25T07:51:05.108Z,1000.19
2023-02-25T07:52:05.087Z,1000.19
2023-02-25T07:53:05.092Z,1000.14
2023-02-25T07:54:05.073Z,1000.15
2023-02-25T07:55:05.055Z,1000.17
2023-02-25T07:56:05.047Z,1000.11
2023-02-25T07:57:05.041Z,1000.17
2023-02-25T07:58:07.269Z,1000.13
2023-02-25T07:59:05.057Z,1000.11
2023-02-25T08:00:05.044Z,1000.17
2023-02-25T08:01:04.999Z,1000.15
2023-02-25T08:02:05.004Z,1000.16
2023-02-25T08:03:04.972Z,1000.15
2023-02-25T08:04:05.039Z,1000.11
2023-02-25T08:05:04.945Z,1000.15
2023-02-25T08:06:04.981Z,1000.15
2023-02-25T08:07:04.975Z,1000.18
2023-02-25T08:08:04.932Z,1000.10
2023-02-25T08:09:04.919Z,1000.16
2023-02-25T08:10:04.945Z,1000.20
2023-02-25T08:11:04.892Z,1000.23
2023-02-25T08:12:04.893Z,1000.24
2023-02-25T08:13:04.872Z,1000.27
2023-02-25T08:14:04.887Z,1000.25
2023-02-25T08:15:04.852Z,1000.23
2023-02-25T08:16:04.894Z,1000.24
2023-02-25T08:17:04.821Z,1000.24
2023-02-25T08:18:04.826Z,1000.27
2023-02-25T08:19:04.808Z,1000.28
2023-02-25T08:20:04.806Z,1000.28
2023-02-25T08:21:04.800Z,1000.30
2023-02-25T08:22:04.782Z,1000.34
2023-02-25T08:23:04.778Z,1000.36
2023-02-25T08:24:04.768Z,1000.40
2023-02-25T08:25:04.751Z,1000.36
2023-02-25T08:26:04.736Z,1000.39
2023-02-25T08:27:04.730Z,1000.38
2023-02-25T08:28:04.721Z,1000.35
2023-02-25T08:29:04.704Z,1000.37
2023-02-25T08:30:04.704Z,1000.36
2023-02-25T08:31:04.839Z,1000.36
2023-02-25T08:32:04.770Z,1000.38
2023-02-25T08:33:04.772Z,1000.34
2023-02-25T08:34:04.661Z,1000.35
2023-02-25T08:35:04.644Z,1000.37
2023-02-25T08:36:04.641Z,1000.36
2023-02-25T08:37:04.628Z,1000.40
2023-02-25T08:38:04.621Z,1000.45
2023-02-25T08:39:04.616Z,1000.44
2023-02-25T08:40:04.629Z,1000.45
2023-02-25T08:41:04.587Z,1000.43
2023-02-25T08:42:04.593Z,1000.37
2023-02-25T08:43:04.571Z,1000.41
2023-02-25T08:44:04.552Z,1000.35
2023-02-25T08:45:04.554Z,1000.36
2023-02-25T08:46:04.535Z,1000.37
2023-02-25T08:47:04.582Z,1000.38
2023-02-25T08:48:04.514Z,1000.36
2023-02-25T08:49:04.512Z,1000.43
2023-02-25T08:50:04.505Z,1000.43
2023-02-25T08:51:04.489Z,1000.47
2023-02-25T08:52:04.490Z,1000.45
2023-02-25T08:53:04.469Z,1000.43
2023-02-25T08:54:04.449Z,1000.40
2023-02-25T08:55:04.458Z,1000.40
2023-02-25T08:56:04.437Z,1000.37
2023-02-25T08:57:04.426Z,1000.36
2023-02-25T08:58:04.420Z,1000.40
2023-02-25T08:59:04.401Z,1000.39
2023-02-25T09:00:05.875Z,1000.42
2023-02-25T09:01:04.479Z,1000.37
2023-02-25T09:02:04.379Z,1000.38
2023-02-25T09:03:04.368Z,1000.39
2023-02-25T09:04:04.390Z,1000.41
2023-02-25T09:05:04.335Z,1000.43
2023-02-25T09:06:04.356Z,1000.47
2023-02-25T09:07:04.323Z,1000.45
2023-02-25T09:08:04.311Z,1000.43
2023-02-25T09:09:04.300Z,1000.46
2023-02-25T09:10:04.306Z,1000.45
2023-02-25T09:11:04.286Z,1000.43
2023-02-25T09:12:04.279Z,1000.39
2023-02-25T09:13:04.258Z,1000.41
2023-02-25T09:14:04.254Z,1000.45
2023-02-25T09:15:04.242Z,1000.40
2023-02-25T09:16:04.250Z,1000.40
2023-02-25T09:17:04.224Z,1000.37
2023-02-25T09:18:04.227Z,1000.29
2023-02-25T09:19:04.203Z,1000.27
2023-02-25T09:20:04.212Z,1000.28
2023-02-25T09:21:04.194Z,1000.28
2023-02-25T09:22:04.177Z,1000.29
2023-02-25T09:23:04.180Z,1000.28
2023-02-25T09:24:04.161Z,1000.24
2023-02-25T09:25:04.150Z,1000.25
2023-02-25T09:26:04.138Z,1000.20
2023-02-25T09:27:04.143Z,1000.22
2023-02-25T09:28:04.121Z,1000.19
2023-02-25T09:29:04.107Z,1000.13
2023-02-25T09:30:04.109Z,1000.21
2023-02-25T09:31:04.180Z,1000.17
2023-02-25T09:32:04.160Z,1000.18
2023-02-25T09:33:04.214Z,1000.25
2023-02-25T09:34:04.059Z,1000.35
2023-02-25T09:35:04.047Z,1000.40
2023-02-25T09:36:04.032Z,1000.39
2023-02-25T09:37:04.033Z,1000.49
2023-02-25T09:38:04.030Z,1000.50
2023-02-25T09:39:04.010Z,1000.47
2023-02-25T09:40:04.002Z,1000.47
2023-02-25T09:41:04.006Z,1000.52
2023-02-25T09:42:03.976Z,1000.54
2023-02-25T09:43:03.972Z,1000.57
2023-02-25T09:44:03.962Z,1000.53
2023-02-25T09:45:03.952Z,1000.49
2023-02-25T09:46:04.074Z,1000.44
2023-02-25T09:47:03.938Z,1000.44
2023-02-25T09:48:03.956Z,1000.43
2023-02-25T09:49:03.908Z,1000.47
2023-02-25T09:50:03.906Z,1000.46
2023-02-25T09:51:03.892Z,1000.50
2023-02-25T09:52:03.888Z,1000.46
2023-02-25T09:53:03.873Z,1000.52
2023-02-25T09:54:03.854Z,1000.58
2023-02-25T09:55:03.867Z,1000.53
2023-02-25T09:56:03.857Z,1000.53
2023-02-25T09:57:03.832Z,1000.55
2023-02-25T09:58:03.836Z,1000.53
2023-02-25T09:59:03.819Z,1000.50
2023-02-25T10:00:03.810Z,1000.59
2023-02-25T10:01:03.797Z,1000.56
2023-02-25T10:02:03.873Z,1000.57
2023-02-25T10:03:03.991Z,1000.55
2023-02-25T10:04:03.764Z,1000.58
2023-02-25T10:05:03.752Z,1000.62
2023-02-25T10:06:03.750Z,1000.63
2023-02-25T10:07:03.761Z,1000.65
2023-02-25T10:08:03.733Z,1000.69
2023-02-25T10:09:03.722Z,1000.67
2023-02-25T10:10:03.712Z,1000.68
2023-02-25T10:11:03.740Z,1000.70
2023-02-25T10:12:03.689Z,1000.73
2023-02-25T10:13:03.674Z,1000.77
2023-02-25T10:14:03.670Z,1000.72
2023-02-25T10:15:03.681Z,1000.72
2023-02-25T10:16:03.661Z,1000.79
2023-02-25T10:17:03.691Z,1000.76
2023-02-25T10:18:03.638Z,1000.85
2023-02-25T10:19:03.630Z,1000.82
2023-02-25T10:20:03.604Z,1000.87
2023-02-25T10:21:03.601Z,1000.86
2023-02-25T10:22:03.592Z,1000.85
2023-02-25T10:23:03.588Z,1000.90
2023-02-25T10:24:03.569Z,1000.86
2023-02-25T10:25:03.556Z,1000.84
2023-02-25T10:26:03.562Z,1000.85
2023-02-25T10:27:03.540Z,1000.81
2023-02-25T10:28:03.539Z,1000.81
2023-02-25T10:29:03.519Z,1000.84
2023-02-25T10:30:03.514Z,1000.84
2023-02-25T10:31:03.617Z,1000.86
2023-02-25T10:32:03.616Z,1000.98
2023-02-25T10:33:03.477Z,1000.93
2023-02-25T10:34:04.031Z,1000.98
2023-02-25T10:35:03.470Z,1000.96
2023-02-25T10:36:03.462Z,1000.93
2023-02-25T10:37:03.439Z,1001.00
2023-02-25T10:38:03.422Z,1001.03
2023-02-25T10:39:03.421Z,1001.06
2023-02-25T10:40:04.638Z,1001.07
2023-02-25T10:41:03.401Z,1001.06
2023-02-25T10:42:03.399Z,1001.06
2023-02-25T10:43:03.392Z,1001.09
2023-02-25T10:44:03.378Z,1001.05
2023-02-25T10:45:03.362Z,1001.04
2023-02-25T10:46:03.504Z,1001.10
2023-02-25T10:47:03.343Z,1001.09
2023-02-25T10:48:03.332Z,1001.11
2023-02-25T10:49:03.337Z,1001.11
2023-02-25T10:50:03.310Z,1001.13
2023-02-25T10:51:03.312Z,1001.06
2023-02-25T10:52:03.511Z,1001.12
2023-02-25T10:53:03.303Z,1001.13
2023-02-25T10:54:03.292Z,1001.17
2023-02-25T10:55:03.268Z,1001.07
2023-02-25T10:56:03.255Z,1001.13
2023-02-25T10:57:03.245Z,1001.07
2023-02-25T10:58:03.245Z,1001.14
2023-02-25T10:59:03.228Z,1001.11
2023-02-25T11:00:03.207Z,1001.07
2023-02-25T11:01:03.242Z,1001.03
2023-02-25T11:02:03.429Z,1001.02
2023-02-25T11:03:03.195Z,1001.11
2023-02-25T11:04:03.215Z,1001.13
2023-02-25T11:05:03.182Z,1001.21
2023-02-25T11:06:03.172Z,1001.15
2023-02-25T11:07:03.161Z,1001.14
2023-02-25T11:08:03.158Z,1001.16
2023-02-25T11:09:03.139Z,1001.22
2023-02-25T11:10:03.143Z,1001.17
2023-02-25T11:11:03.139Z,1001.18
2023-02-25T11:12:03.124Z,1001.18
2023-02-25T11:13:03.157Z,1001.13
2023-02-25T11:14:03.102Z,1001.12
2023-02-25T11:15:03.088Z,1001.15
2023-02-25T11:16:03.112Z,1001.18
2023-02-25T11:17:03.076Z,1001.16
2023-02-25T11:18:03.075Z,1001.22
2023-02-25T11:19:03.065Z,1001.26
2023-02-25T11:20:03.058Z,1001.24
2023-02-25T11:21:03.076Z,1001.24
2023-02-25T11:22:03.034Z,1001.25
2023-02-25T11:23:03.038Z,1001.30
2023-02-25T11:24:03.029Z,1001.23
2023-02-25T11:25:03.016Z,1001.20
2023-02-25T11:26:03.036Z,1001.19
2023-02-25T11:27:03.000Z,1001.18
2023-02-25T11:28:03.000Z,1001.20
2023-02-25T11:29:02.992Z,1001.24
2023-02-25T11:30:02.985Z,1001.22
2023-02-25T11:31:03.094Z,1001.31
2023-02-25T11:32:03.050Z,1001.23
2023-02-25T11:33:02.947Z,1001.21
2023-02-25T11:34:02.963Z,1001.22
2023-02-25T11:35:02.986Z,1001.23
2023-02-25T11:36:02.945Z,1001.20
2023-02-25T11:37:02.929Z,1001.17
2023-02-25T11:38:02.911Z,1001.22
2023-02-25T11:39:02.913Z,1001.25
2023-02-25T11:40:02.911Z,1001.30
2023-02-25T11:41:02.890Z,1001.25
2023-02-25T11:42:02.879Z,1001.31
2023-02-25T11:43:02.886Z,1001.34
2023-02-25T11:44:03.230Z,1001.35
2023-02-25T11:45:02.895Z,1001.32
2023-02-25T11:46:02.914Z,1001.35
2023-02-25T11:47:02.836Z,1001.35
2023-02-25T11:48:02.837Z,1001.37
2023-02-25T11:49:02.816Z,1001.38
2023-02-25T11:50:02.817Z,1001.43
2023-02-25T11:51:02.798Z,1001.42
2023-02-25T11:52:02.788Z,1001.37
2023-02-25T11:53:02.784Z,1001.42
2023-02-25T11:54:02.773Z,1001.36
2023-02-25T11:55:02.773Z,1001.28
2023-02-25T11:56:02.748Z,1001.29
2023-02-25T11:57:02.755Z,1001.27
2023-02-25T11:58:02.737Z,1001.30
2023-02-25T11:59:02.732Z,1001.28
2023-02-25T12:00:02.736Z,1001.26
2023-02-25T12:01:02.722Z,1001.28
2023-02-25T12:02:02.703Z,1001.22
2023-02-25T12:03:03.523Z,1001.23
2023-02-25T12:04:02.701Z,1001.27
2023-02-25T12:05:02.691Z,1001.28
2023-02-25T12:06:02.702Z,1001.31
2023-02-25T12:07:02.653Z,1001.29
2023-02-25T12:08:13.338Z,1001.30
2023-02-25T12:09:02.625Z,1001.31
2023-02-25T12:10:02.611Z,1001.33
2023-02-25T12:11:02.620Z,1001.39
2023-02-25T12:12:02.594Z,1001.40
2023-02-25T12:13:02.589Z,1001.45
2023-02-25T12:14:02.570Z,1001.45
2023-02-25T12:15:02.569Z,1001.42
2023-02-25T12:16:02.575Z,1001.45
2023-02-25T12:17:02.554Z,1001.43
2023-02-25T12:18:02.540Z,1001.45